VJC887 VVTS-VVPQ
Flight info
| Callsign | VJC887 |
|---|---|
| Flight time | 0h 37m |
| Altitude | 22000 |
| Route | BACHU5A BACHU W17 TUNPO TATEM1B |
| Aircraft | A339/H-SADE1E2E3GHIJ3J5M1P2RWXY/LB2D1 |
Departure
| Time | 2026-04-25 16:57 |
|---|---|
| Airport | Tan Son Nhat International Airport (VVTS) |
Arrival
| Time | 2026-04-25 17:35 |
|---|---|
| Airport | Phú Quốc International Airport (VVPQ) |
| Time | Latitude | Longitude | Altitude | Speed | Heading |
|---|---|---|---|---|---|
| 2026-04-25 16:31 | 10.81395 | 106.66118 | 41 ft | 0 kts | 95° |
| 2026-04-25 16:45 | 10.81395 | 106.66117 | 41 ft | 1 kts | 95° |
| 2026-04-25 16:45 | 10.81396 | 106.66103 | 41 ft | 0 kts | 94° |
| 2026-04-25 16:45 | 10.81397 | 106.66092 | 40 ft | 2 kts | 90° |
| 2026-04-25 16:45 | 10.81396 | 106.66077 | 40 ft | 2 kts | 75° |
| 2026-04-25 16:46 | 10.81391 | 106.66062 | 40 ft | 2 kts | 63° |
| 2026-04-25 16:46 | 10.81383 | 106.66049 | 40 ft | 2 kts | 51° |
| 2026-04-25 16:46 | 10.81372 | 106.66038 | 40 ft | 2 kts | 38° |
| 2026-04-25 16:46 | 10.81368 | 106.66035 | 40 ft | 2 kts | 34° |
| 2026-04-25 16:47 | 10.81346 | 106.66023 | 40 ft | 2 kts | 14° |
| 2026-04-25 16:47 | 10.81335 | 106.66022 | 40 ft | 0 kts | 6° |
| 2026-04-25 16:47 | 10.81331 | 106.66021 | 40 ft | 0 kts | 5° |
| 2026-04-25 16:51 | 10.81347 | 106.66022 | 40 ft | 4 kts | 6° |
| 2026-04-25 16:51 | 10.81400 | 106.66029 | 39 ft | 10 kts | 6° |
| 2026-04-25 16:51 | 10.81488 | 106.66037 | 38 ft | 14 kts | 4° |
| 2026-04-25 16:51 | 10.81523 | 106.66040 | 37 ft | 15 kts | 5° |
| 2026-04-25 16:52 | 10.81732 | 106.66059 | 37 ft | 19 kts | 6° |
| 2026-04-25 16:52 | 10.81855 | 106.66087 | 37 ft | 16 kts | 43° |
| 2026-04-25 16:52 | 10.81908 | 106.66195 | 37 ft | 17 kts | 69° |
| 2026-04-25 16:52 | 10.81950 | 106.66311 | 37 ft | 17 kts | 70° |
| 2026-04-25 16:53 | 10.82038 | 106.66542 | 38 ft | 17 kts | 69° |
| 2026-04-25 16:53 | 10.82081 | 106.66653 | 38 ft | 16 kts | 69° |
| 2026-04-25 16:53 | 10.82121 | 106.66763 | 40 ft | 16 kts | 69° |
| 2026-04-25 16:54 | 10.82162 | 106.66870 | 41 ft | 15 kts | 69° |
| 2026-04-25 16:54 | 10.82201 | 106.66972 | 43 ft | 14 kts | 66° |
| 2026-04-25 16:54 | 10.82254 | 106.67001 | 43 ft | 8 kts | 352° |
| 2026-04-25 16:54 | 10.82262 | 106.67000 | 43 ft | 0 kts | 345° |
| 2026-04-25 16:55 | 10.82265 | 106.66999 | 43 ft | 1 kts | 345° |
| 2026-04-25 16:55 | 10.82284 | 106.66993 | 43 ft | 4 kts | 338° |
| 2026-04-25 16:55 | 10.82318 | 106.66972 | 43 ft | 6 kts | 322° |
| 2026-04-25 16:56 | 10.82361 | 106.66945 | 43 ft | 3 kts | 324° |
| 2026-04-25 16:56 | 10.82361 | 106.66915 | 42 ft | 6 kts | 246° |
| 2026-04-25 16:56 | 10.82338 | 106.66863 | 41 ft | 16 kts | 248° |
| 2026-04-25 16:56 | 10.82206 | 106.66515 | 40 ft | 86 kts | 248° |
| 2026-04-25 16:57 | 10.81916 | 106.65745 | 37 ft | 144 kts | 249° |
| 2026-04-25 16:57 | 10.81792 | 106.65417 | 37 ft | 160 kts | 249° |
| 2026-04-25 16:57 | 10.81086 | 106.63496 | 774 ft | 174 kts | 247° |
| 2026-04-25 16:57 | 10.80662 | 106.62364 | 1390 ft | 171 kts | 245° |
| 2026-04-25 16:58 | 10.80216 | 106.61221 | 1849 ft | 180 kts | 244° |
| 2026-04-25 16:58 | 10.79728 | 106.59984 | 2177 ft | 193 kts | 245° |
| 2026-04-25 16:58 | 10.79213 | 106.58661 | 2454 ft | 208 kts | 246° |
| 2026-04-25 16:58 | 10.78665 | 106.57233 | 2734 ft | 223 kts | 247° |
| 2026-04-25 16:59 | 10.78084 | 106.55708 | 3009 ft | 239 kts | 248° |
| 2026-04-25 16:59 | 10.77472 | 106.54092 | 3303 ft | 255 kts | 248° |
| 2026-04-25 16:59 | 10.76809 | 106.52343 | 3608 ft | 273 kts | 248° |
| 2026-04-25 16:59 | 10.76102 | 106.50482 | 4091 ft | 284 kts | 249° |
| 2026-04-25 17:00 | 10.75386 | 106.48597 | 4788 ft | 286 kts | 249° |
| 2026-04-25 17:00 | 10.74662 | 106.46694 | 5494 ft | 288 kts | 250° |
| 2026-04-25 17:00 | 10.73943 | 106.44801 | 6193 ft | 289 kts | 251° |
| 2026-04-25 17:00 | 10.73224 | 106.42899 | 6883 ft | 291 kts | 250° |
| 2026-04-25 17:01 | 10.72494 | 106.40964 | 7529 ft | 295 kts | 250° |
| 2026-04-25 17:01 | 10.71758 | 106.39020 | 8186 ft | 299 kts | 250° |
| 2026-04-25 17:01 | 10.71005 | 106.37038 | 8825 ft | 303 kts | 250° |
| 2026-04-25 17:01 | 10.70231 | 106.35001 | 9464 ft | 307 kts | 250° |
| 2026-04-25 17:02 | 10.69451 | 106.32951 | 10108 ft | 310 kts | 250° |
| 2026-04-25 17:02 | 10.68663 | 106.30867 | 10515 ft | 322 kts | 251° |
| 2026-04-25 17:02 | 10.67900 | 106.28657 | 10870 ft | 336 kts | 252° |
| 2026-04-25 17:02 | 10.67652 | 106.27928 | 11038 ft | 338 kts | 251° |
| 2026-04-25 17:03 | 10.66360 | 106.24105 | 12073 ft | 343 kts | 251° |
| 2026-04-25 17:03 | 10.65574 | 106.21783 | 12681 ft | 346 kts | 251° |
| 2026-04-25 17:03 | 10.64793 | 106.19476 | 13266 ft | 350 kts | 251° |
| 2026-04-25 17:03 | 10.63995 | 106.17124 | 13871 ft | 352 kts | 251° |
| 2026-04-25 17:04 | 10.63188 | 106.14750 | 14472 ft | 354 kts | 251° |
| 2026-04-25 17:04 | 10.62378 | 106.12364 | 15071 ft | 356 kts | 251° |
| 2026-04-25 17:04 | 10.61573 | 106.09998 | 15648 ft | 358 kts | 251° |
| 2026-04-25 17:04 | 10.60754 | 106.07590 | 16227 ft | 360 kts | 251° |
| 2026-04-25 17:05 | 10.59941 | 106.05198 | 16784 ft | 362 kts | 251° |
| 2026-04-25 17:05 | 10.58289 | 106.00347 | 17863 ft | 366 kts | 251° |
| 2026-04-25 17:05 | 10.57403 | 105.97881 | 18359 ft | 370 kts | 250° |
| 2026-04-25 17:06 | 10.56499 | 105.95422 | 18835 ft | 374 kts | 250° |
| 2026-04-25 17:06 | 10.55572 | 105.92908 | 19340 ft | 377 kts | 250° |
| 2026-04-25 17:06 | 10.54659 | 105.90426 | 19813 ft | 380 kts | 251° |
| 2026-04-25 17:06 | 10.53729 | 105.87893 | 20270 ft | 384 kts | 251° |
| 2026-04-25 17:07 | 10.52791 | 105.85335 | 20712 ft | 388 kts | 251° |
| 2026-04-25 17:07 | 10.51834 | 105.82725 | 21170 ft | 390 kts | 251° |
| 2026-04-25 17:07 | 10.50891 | 105.80148 | 21603 ft | 394 kts | 251° |
| 2026-04-25 17:07 | 10.49924 | 105.77511 | 21860 ft | 397 kts | 251° |
| 2026-04-25 17:08 | 10.48968 | 105.74899 | 21888 ft | 397 kts | 251° |
| 2026-04-25 17:08 | 10.47994 | 105.72240 | 21893 ft | 396 kts | 251° |
| 2026-04-25 17:08 | 10.47031 | 105.69614 | 21895 ft | 396 kts | 251° |
| 2026-04-25 17:08 | 10.46065 | 105.66979 | 21897 ft | 396 kts | 251° |
| 2026-04-25 17:09 | 10.45104 | 105.64362 | 21899 ft | 396 kts | 251° |
| 2026-04-25 17:09 | 10.44137 | 105.61726 | 21899 ft | 396 kts | 251° |
| 2026-04-25 17:09 | 10.43185 | 105.59132 | 21901 ft | 396 kts | 251° |
| 2026-04-25 17:09 | 10.42218 | 105.56496 | 21902 ft | 396 kts | 251° |
| 2026-04-25 17:10 | 10.41246 | 105.53851 | 21901 ft | 396 kts | 251° |
| 2026-04-25 17:10 | 10.40291 | 105.51253 | 21899 ft | 397 kts | 251° |
| 2026-04-25 17:10 | 10.39323 | 105.48619 | 21898 ft | 397 kts | 251° |
| 2026-04-25 17:10 | 10.38354 | 105.45981 | 21900 ft | 396 kts | 251° |
| 2026-04-25 17:11 | 10.37398 | 105.43379 | 21901 ft | 397 kts | 251° |
| 2026-04-25 17:11 | 10.36426 | 105.40735 | 21900 ft | 397 kts | 251° |
| 2026-04-25 17:11 | 10.35465 | 105.38124 | 21899 ft | 397 kts | 251° |
| 2026-04-25 17:11 | 10.34491 | 105.35474 | 21898 ft | 397 kts | 251° |
| 2026-04-25 17:12 | 10.33520 | 105.32838 | 21900 ft | 397 kts | 251° |
| 2026-04-25 17:12 | 10.32558 | 105.30225 | 21900 ft | 396 kts | 251° |
| 2026-04-25 17:12 | 10.31595 | 105.27610 | 21901 ft | 396 kts | 251° |
| 2026-04-25 17:12 | 10.30624 | 105.24976 | 21905 ft | 396 kts | 251° |
| 2026-04-25 17:13 | 10.29667 | 105.22379 | 21906 ft | 397 kts | 251° |
| 2026-04-25 17:13 | 10.29337 | 105.21484 | 21905 ft | 397 kts | 251° |
| 2026-04-25 17:13 | 10.27724 | 105.17110 | 21903 ft | 397 kts | 251° |
| 2026-04-25 17:13 | 10.26760 | 105.14494 | 21900 ft | 397 kts | 251° |
| 2026-04-25 17:14 | 10.25789 | 105.11858 | 21807 ft | 398 kts | 251° |
| 2026-04-25 17:14 | 10.24816 | 105.09218 | 21297 ft | 403 kts | 251° |
| 2026-04-25 17:14 | 10.23838 | 105.06561 | 20827 ft | 404 kts | 250° |
| 2026-04-25 17:14 | 10.22852 | 105.03894 | 20431 ft | 402 kts | 250° |
| 2026-04-25 17:15 | 10.21866 | 105.01225 | 20061 ft | 400 kts | 250° |
| 2026-04-25 17:15 | 10.20897 | 104.98605 | 19705 ft | 397 kts | 250° |
| 2026-04-25 17:15 | 10.19925 | 104.95975 | 19351 ft | 394 kts | 250° |
| 2026-04-25 17:15 | 10.18963 | 104.93375 | 18996 ft | 391 kts | 250° |
| 2026-04-25 17:16 | 10.18012 | 104.90800 | 18643 ft | 389 kts | 250° |
| 2026-04-25 17:16 | 10.17067 | 104.88244 | 18290 ft | 386 kts | 250° |
| 2026-04-25 17:16 | 10.16128 | 104.85705 | 17944 ft | 384 kts | 250° |
| 2026-04-25 17:16 | 10.15187 | 104.83164 | 17597 ft | 381 kts | 250° |
| 2026-04-25 17:17 | 10.14256 | 104.80648 | 17251 ft | 379 kts | 250° |
| 2026-04-25 17:17 | 10.13342 | 104.78177 | 16915 ft | 376 kts | 250° |
| 2026-04-25 17:17 | 10.12411 | 104.75661 | 16566 ft | 374 kts | 250° |
| 2026-04-25 17:17 | 10.11504 | 104.73210 | 16212 ft | 372 kts | 249° |
| 2026-04-25 17:18 | 10.10582 | 104.70726 | 15839 ft | 371 kts | 249° |
| 2026-04-25 17:18 | 10.09676 | 104.68288 | 15483 ft | 369 kts | 249° |
| 2026-04-25 17:18 | 10.08756 | 104.65811 | 15123 ft | 368 kts | 249° |
| 2026-04-25 17:18 | 10.07855 | 104.63384 | 14779 ft | 366 kts | 249° |
| 2026-04-25 17:19 | 10.07041 | 104.60939 | 14411 ft | 364 kts | 259° |
| 2026-04-25 17:19 | 10.07088 | 104.58395 | 14037 ft | 360 kts | 286° |
| 2026-04-25 17:19 | 10.08186 | 104.56176 | 13675 ft | 355 kts | 309° |
| 2026-04-25 17:19 | 10.09807 | 104.54244 | 13331 ft | 353 kts | 311° |
| 2026-04-25 17:20 | 10.11405 | 104.52321 | 12981 ft | 351 kts | 311° |
| 2026-04-25 17:20 | 10.12950 | 104.50419 | 12643 ft | 350 kts | 310° |
| 2026-04-25 17:20 | 10.14484 | 104.48502 | 12310 ft | 348 kts | 310° |
| 2026-04-25 17:20 | 10.15987 | 104.46605 | 11982 ft | 346 kts | 310° |
| 2026-04-25 17:21 | 10.17500 | 104.44689 | 11652 ft | 344 kts | 310° |
| 2026-04-25 17:21 | 10.18994 | 104.42792 | 11323 ft | 343 kts | 310° |
| 2026-04-25 17:21 | 10.20470 | 104.40919 | 10997 ft | 341 kts | 310° |
| 2026-04-25 17:21 | 10.21959 | 104.39029 | 10671 ft | 339 kts | 310° |
| 2026-04-25 17:22 | 10.23439 | 104.37150 | 10351 ft | 337 kts | 310° |
| 2026-04-25 17:22 | 10.23916 | 104.36537 | 10247 ft | 337 kts | 308° |
| 2026-04-25 17:22 | 10.25460 | 104.32961 | 9991 ft | 326 kts | 279° |
| 2026-04-25 17:22 | 10.25722 | 104.30722 | 9975 ft | 315 kts | 276° |
| 2026-04-25 17:23 | 10.25919 | 104.28518 | 9735 ft | 312 kts | 275° |
| 2026-04-25 17:23 | 10.26113 | 104.26312 | 9431 ft | 312 kts | 275° |
| 2026-04-25 17:23 | 10.26311 | 104.24145 | 9142 ft | 312 kts | 276° |
| 2026-04-25 17:23 | 10.26519 | 104.21948 | 8933 ft | 308 kts | 276° |
| 2026-04-25 17:24 | 10.26727 | 104.19798 | 8737 ft | 303 kts | 276° |
| 2026-04-25 17:24 | 10.26935 | 104.17687 | 8544 ft | 300 kts | 276° |
| 2026-04-25 17:24 | 10.27140 | 104.15616 | 8358 ft | 296 kts | 276° |
| 2026-04-25 17:24 | 10.27346 | 104.13542 | 8174 ft | 292 kts | 276° |
| 2026-04-25 17:25 | 10.27550 | 104.11496 | 7994 ft | 288 kts | 276° |
| 2026-04-25 17:25 | 10.27751 | 104.09483 | 7820 ft | 284 kts | 276° |
| 2026-04-25 17:25 | 10.27947 | 104.07512 | 7649 ft | 280 kts | 276° |
| 2026-04-25 17:25 | 10.28143 | 104.05550 | 7481 ft | 277 kts | 276° |
| 2026-04-25 17:26 | 10.28335 | 104.03618 | 7318 ft | 273 kts | 276° |
| 2026-04-25 17:26 | 10.28523 | 104.01715 | 7159 ft | 269 kts | 277° |
| 2026-04-25 17:26 | 10.28707 | 103.99856 | 6905 ft | 265 kts | 277° |
| 2026-04-25 17:26 | 10.28892 | 103.97994 | 6638 ft | 262 kts | 277° |
| 2026-04-25 17:27 | 10.29075 | 103.96154 | 6333 ft | 260 kts | 277° |
| 2026-04-25 17:27 | 10.29253 | 103.94356 | 6070 ft | 258 kts | 277° |
| 2026-04-25 17:27 | 10.29433 | 103.92541 | 5904 ft | 254 kts | 277° |
| 2026-04-25 17:27 | 10.29491 | 103.91964 | 5831 ft | 252 kts | 277° |
| 2026-04-25 17:28 | 10.29780 | 103.89047 | 5396 ft | 245 kts | 276° |
| 2026-04-25 17:28 | 10.29948 | 103.87354 | 5177 ft | 240 kts | 276° |
| 2026-04-25 17:28 | 10.30114 | 103.85675 | 5028 ft | 236 kts | 276° |
| 2026-04-25 17:28 | 10.30188 | 103.84047 | 4952 ft | 227 kts | 259° |
| 2026-04-25 17:29 | 10.29547 | 103.82668 | 4945 ft | 210 kts | 224° |
| 2026-04-25 17:29 | 10.28363 | 103.81894 | 4811 ft | 197 kts | 192° |
| 2026-04-25 17:29 | 10.27027 | 103.81688 | 4627 ft | 191 kts | 181° |
| 2026-04-25 17:29 | 10.25709 | 103.81593 | 4449 ft | 188 kts | 180° |
| 2026-04-25 17:30 | 10.24416 | 103.81501 | 4268 ft | 184 kts | 181° |
| 2026-04-25 17:30 | 10.23126 | 103.81398 | 4062 ft | 183 kts | 181° |
| 2026-04-25 17:30 | 10.21860 | 103.81286 | 3848 ft | 182 kts | 182° |
| 2026-04-25 17:30 | 10.20603 | 103.81182 | 3637 ft | 180 kts | 174° |
| 2026-04-25 17:31 | 10.19467 | 103.81599 | 3386 ft | 173 kts | 133° |
| 2026-04-25 17:31 | 10.18838 | 103.82618 | 3162 ft | 170 kts | 108° |
| 2026-04-25 17:31 | 10.18554 | 103.83765 | 2949 ft | 169 kts | 99° |
| 2026-04-25 17:31 | 10.18399 | 103.84946 | 2737 ft | 168 kts | 96° |
| 2026-04-25 17:32 | 10.18283 | 103.86131 | 2521 ft | 168 kts | 95° |
| 2026-04-25 17:32 | 10.18173 | 103.87312 | 2304 ft | 168 kts | 95° |
| 2026-04-25 17:32 | 10.18059 | 103.88491 | 2088 ft | 168 kts | 95° |
| 2026-04-25 17:32 | 10.17944 | 103.89653 | 1966 ft | 165 kts | 96° |
| 2026-04-25 17:33 | 10.17826 | 103.90829 | 1872 ft | 169 kts | 96° |
| 2026-04-25 17:33 | 10.17703 | 103.92062 | 1263 ft | 188 kts | 96° |
| 2026-04-25 17:33 | 10.17568 | 103.93421 | 774 ft | 195 kts | 95° |
| 2026-04-25 17:33 | 10.17433 | 103.94762 | 673 ft | 179 kts | 96° |
| 2026-04-25 17:34 | 10.17300 | 103.95997 | 469 ft | 172 kts | 95° |
| 2026-04-25 17:34 | 10.17190 | 103.97197 | 198 ft | 169 kts | 95° |
| 2026-04-25 17:34 | 10.17078 | 103.98352 | 54 ft | 159 kts | 95° |
| 2026-04-25 17:34 | 10.16974 | 103.99414 | 39 ft | 137 kts | 96° |
| 2026-04-25 17:35 | 10.16909 | 104.00085 | 39 ft | 66 kts | 95° |
| 2026-04-25 17:35 | 10.16869 | 104.00465 | 39 ft | 44 kts | 96° |
| 2026-04-25 17:35 | 10.16825 | 104.00645 | 39 ft | 17 kts | 153° |
| 2026-04-25 17:35 | 10.16711 | 104.00641 | 39 ft | 9 kts | 208° |
| 2026-04-25 17:36 | 10.16687 | 104.00584 | 39 ft | 8 kts | 268° |
| 2026-04-25 17:36 | 10.16692 | 104.00517 | 39 ft | 10 kts | 275° |
| 2026-04-25 17:36 | 10.16699 | 104.00439 | 39 ft | 11 kts | 276° |
| 2026-04-25 17:36 | 10.16708 | 104.00353 | 39 ft | 12 kts | 276° |
| 2026-04-25 17:37 | 10.16718 | 104.00259 | 39 ft | 13 kts | 276° |
| 2026-04-25 17:37 | 10.16701 | 104.00171 | 39 ft | 12 kts | 226° |
| 2026-04-25 17:37 | 10.16616 | 104.00150 | 39 ft | 13 kts | 184° |
| 2026-04-25 17:37 | 10.16523 | 104.00137 | 39 ft | 13 kts | 208° |
| 2026-04-25 17:38 | 10.16493 | 104.00055 | 39 ft | 13 kts | 274° |
| 2026-04-25 17:38 | 10.16495 | 104.00021 | 39 ft | 14 kts | 275° |
| 2026-04-25 17:38 | 10.16504 | 103.99870 | 39 ft | 6 kts | 240° |
| 2026-04-25 17:38 | 10.16459 | 103.99849 | 39 ft | 7 kts | 198° |
| 2026-04-25 17:39 | 10.16433 | 103.99844 | 39 ft | 0 kts | 186° |
| 2026-04-25 17:39 | 10.16428 | 103.99844 | 39 ft | 0 kts | 185° |